Terminal Aerodrome Forecast
Issued by NWS Missoula, MT

Home | Current Version | Previous Version | Text Only | Print | Product List | Glossary On
Versions: 1 2 3 4 5 6 7 8 9 10 11 12 13 14 15 16 17 18 19 20 21
677
FTUS45 KMSO 200143 AAA
TAFMSO
TAF AMD
KMSO 200143Z 2002/2024 32004KT 3SM -RA BR BKN025 OVC040
     FM200300 32005KT 4SM BR SCT030 BKN050
     FM201000 00000KT 1SM BR SCT005 BKN025
     FM201600 VRB03KT 4SM BR OVC040=

USA.gov is the U.S. government's official web portal to all federal, state and local government web resources and services.